Página principal
METAR-TAF:

METAR-TAF

Aeroportos :

Funchal, Madeira, Portugal

Aeroporto da Madeira

latitude: 32-41-52N, longitude: 016-46-28W, altura: 59 m

Observação actual do tempo

O boletim foi feito há 30 minutos, às 17:00 UTC
Vento 11 kt de nor-nordeste, variando entre norte e es-nordeste
Temperatura 20°C
Humidade 64%
Pressão 1019 hPa
Visibilidade 10 km ou mais
Nuvens dispersasa uma altura de 1500 ft

METAR: LPMA 221700Z 03011KT 350V060 9999 SCT015 20/13 Q1019

Hora: 18:30 (17:30 UTC)

Previsão

O boletim foi feito há 6 horas e 30 minutos, às 11:00 UTC
Previsão válida de 22 às 12 UTC a 23 às 12 UTC
Vento 10 kt de norte
Visibilidade 10 km ou mais
Nuvens dispersasa uma altura de 1500 ft
Temporariamente
de 22 às 12 UTC a 23 às 03 UTC
Vento 15 kt de norte com rajadas de 25 kt
Nuvens dispersasa uma altura de 1500 ft
Nuvens fragmentadasa uma altura de 3000 ft

TAF: LPMA 221100Z 2212/2312 36010KT 9999 SCT015 TEMPO 2212/2303 36015G25KT SCT015 BKN030

Observações e previsões do tempo de mais de 4000 aeroportos (mensagens METAR e TAF).

As estações disponíveis são os pontos amarelos e vermelhos sobre o mapa.

Mova o rato sobre o mapa para ver o nome da estação.

Depois clique no ponto para visualizar as observações e previsões meteorológicas.

Para alterar o mapa : clique nos botões verdes com uma cruz preta para aumentar o zoom; no botão verde com uma pitada de zoom; ou nas setas verdes para mapas adjacentes.


METAR-TAF: